Time;durP1;ratioP1;P1;durP2;ratioP2;P2;SDS_P1;SDS_P2;PMS_P1;PMS_P2;Temp;Humidity;BMP_temperature;BMP_pressure;BME280_temperature;BME280_humidity;BME280_pressure;Samples;Min_cycle;Max_cycle;Signal;HPM_P1;HPM_P2
2022/12/05 00:00:59;;;;;;;38.42;21.10;;;;;;;4.64;68.90;100022.13;5161866;22;20056;-80
2022/12/05 00:03:25;;;;;;;41.78;21.55;;;;;;;4.63;69.18;100003.03;5048460;28;20053;-80
2022/12/05 00:05:52;;;;;;;41.53;22.30;;;;;;;4.65;69.27;100016.03;5049689;28;20139;-79
2022/12/05 00:08:18;;;;;;;39.90;21.15;;;;;;;4.67;68.87;100006.38;5049926;28;20427;-79
2022/12/05 00:10:44;;;;;;;42.72;22.60;;;;;;;4.68;69.25;100002.91;5049305;28;20053;-79
2022/12/05 00:13:11;;;;;;;40.40;20.95;;;;;;;4.71;69.15;100001.97;5049854;28;20088;-79
2022/12/05 00:15:39;;;;;;;41.78;22.65;;;;;;;4.69;69.27;100005.47;5031817;28;20060;-79
2022/12/05 00:18:06;;;;;;;36.88;20.90;;;;;;;4.72;69.18;100014.09;5049540;28;20468;-79
2022/12/05 00:20:33;;;;;;;40.40;21.83;;;;;;;4.74;69.15;100012.31;5049645;28;20057;-79
2022/12/05 00:23:00;;;;;;;42.08;22.17;;;;;;;4.76;69.04;100000.06;5049559;28;20474;-79
2022/12/05 00:25:26;;;;;;;38.97;21.40;;;;;;;4.77;69.03;99997.41;5049358;28;20096;-79
2022/12/05 00:27:53;;;;;;;40.97;22.08;;;;;;;4.78;68.95;99995.66;5049337;28;20088;-79
2022/12/05 00:30:19;;;;;;;38.97;21.17;;;;;;;4.79;68.98;100003.44;5049362;28;20095;-80
2022/12/05 00:32:45;;;;;;;39.10;21.45;;;;;;;4.78;69.01;99993.91;5049281;28;20571;-79
2022/12/05 00:35:12;;;;;;;40.35;21.52;;;;;;;4.79;69.00;99994.78;5049382;28;20140;-79
2022/12/05 00:37:38;;;;;;;40.78;21.27;;;;;;;4.81;68.91;99998.16;5049027;28;20491;-79
2022/12/05 00:40:05;;;;;;;42.65;22.67;;;;;;;4.80;69.01;99994.72;5031230;28;20438;-79
2022/12/05 00:42:32;;;;;;;41.67;21.25;;;;;;;4.81;68.93;99992.97;5048849;28;20056;-79
2022/12/05 00:44:58;;;;;;;39.58;22.48;;;;;;;4.81;69.16;99998.16;5048832;28;20128;-79
2022/12/05 00:47:24;;;;;;;39.28;20.95;;;;;;;4.80;68.97;99988.66;5049459;28;20083;-79
2022/12/05 00:49:51;;;;;;;40.00;21.40;;;;;;;4.81;69.05;99983.38;5049191;28;20144;-79
2022/12/05 00:52:17;;;;;;;39.22;20.25;;;;;;;4.82;69.19;99997.25;5049418;28;20111;-79
2022/12/05 00:54:43;;;;;;;39.55;20.73;;;;;;;4.82;69.22;99990.31;5048756;28;20134;-80
2022/12/05 00:57:10;;;;;;;38.80;20.25;;;;;;;4.85;69.15;99991.13;5048960;28;20057;-79
2022/12/05 00:59:36;;;;;;;37.58;21.40;;;;;;;4.86;69.25;99990.22;5049035;28;20091;-79
2022/12/05 01:02:02;;;;;;;38.03;21.58;;;;;;;4.87;69.11;99986.72;5048938;28;20087;-79
2022/12/05 01:04:29;;;;;;;39.15;21.73;;;;;;;4.88;69.21;99986.66;5048889;28;20088;-79
2022/12/05 01:06:57;;;;;;;40.22;21.77;;;;;;;4.89;69.30;99990.13;5048972;28;20392;-79
2022/12/05 01:09:24;;;;;;;40.60;22.02;;;;;;;4.91;69.08;99988.31;5049240;28;20053;-79
2022/12/05 01:11:50;;;;;;;40.28;21.52;;;;;;;4.92;69.22;99990.91;5048884;28;20080;-79
2022/12/05 01:14:21;;;;;;;41.15;22.25;;;;;;;4.92;69.41;99985.69;5048917;28;20103;-79
2022/12/05 01:16:49;;;;;;;36.75;21.45;;;;;;;4.93;69.23;99989.13;5048645;28;20053;-79
2022/12/05 01:19:21;;;;;;;39.95;21.65;;;;;;;4.95;69.48;99998.63;5049199;28;20057;-79
2022/12/05 01:21:47;;;;;;;39.42;21.65;;;;;;;4.97;69.18;99988.13;5049163;28;20080;-79
2022/12/05 01:24:15;;;;;;;38.17;21.33;;;;;;;5.00;68.83;99992.41;5047736;28;20128;-80
2022/12/05 01:26:42;;;;;;;42.55;21.55;;;;;;;4.99;69.15;99991.56;5048652;28;20068;-80
2022/12/05 01:29:10;;;;;;;39.00;21.98;;;;;;;5.00;69.19;99990.66;5048543;28;20061;-80
2022/12/05 01:31:37;;;;;;;38.47;21.30;;;;;;;5.01;69.35;99994.13;5049104;28;20057;-80
2022/12/05 01:34:06;;;;;;;38.95;21.15;;;;;;;5.01;69.12;99997.56;5031181;28;20049;-80
2022/12/05 01:36:32;;;;;;;36.90;20.30;;;;;;;5.02;69.42;99996.69;5048588;28;20104;-79
2022/12/05 01:38:59;;;;;;;38.10;21.15;;;;;;;5.02;69.03;99999.31;5048857;28;20656;-79
2022/12/05 01:41:31;;;;;;;36.50;20.00;;;;;;;5.01;69.38;100002.78;5048853;28;20095;-79
2022/12/05 01:44:02;;;;;;;36.50;20.85;;;;;;;5.03;69.20;99994.94;5048813;28;20059;-79
2022/12/05 01:46:37;;;;;;;35.63;20.42;;;;;;;5.03;69.35;99998.41;5048793;28;20099;-78
2022/12/05 01:49:15;;;;;;;34.90;20.50;;;;;;;5.00;69.71;99993.25;5048609;28;20084;-79
2022/12/05 01:51:45;;;;;;;37.47;20.45;;;;;;;5.03;69.66;99995.78;5048760;28;20446;-79
2022/12/05 01:54:13;;;;;;;33.85;20.13;;;;;;;5.06;69.29;99997.44;5051610;28;20102;-79
2022/12/05 01:56:43;;;;;;;35.10;20.05;;;;;;;5.06;69.35;99993.09;5052605;28;20136;-79
2022/12/05 01:59:11;;;;;;;32.30;18.52;;;;;;;5.07;69.12;99996.53;5052195;28;20117;-79
2022/12/05 02:01:38;;;;;;;34.80;19.85;;;;;;;5.07;69.34;99997.41;5052071;28;20566;-79
2022/12/05 02:04:05;;;;;;;34.35;18.45;;;;;;;5.11;69.25;99999.91;5034215;28;20132;-79
2022/12/05 02:06:34;;;;;;;34.78;18.80;;;;;;;5.08;69.51;99999.13;5051939;28;20580;-79
2022/12/05 02:09:01;;;;;;;35.72;19.20;;;;;;;5.11;69.13;100002.50;5051901;28;20495;-79
2022/12/05 02:11:29;;;;;;;36.10;19.80;;;;;;;5.11;69.38;99998.16;5052064;28;20057;-79
2022/12/05 02:14:06;;;;;;;31.98;18.63;;;;;;;5.08;69.76;100001.72;5051871;28;20498;-79
2022/12/05 02:16:47;;;;;;;29.60;17.65;;;;;;;5.09;69.76;100000.81;5052006;28;20422;-79
2022/12/05 02:19:39;;;;;;;32.65;18.63;;;;;;;5.11;69.70;99999.91;5051917;28;20138;-79
2022/12/05 02:22:44;;;;;;;29.60;16.55;;;;;;;5.12;69.81;100004.25;5051791;28;20126;-79
2022/12/05 02:25:18;;;;;;;33.55;18.65;;;;;;;5.16;69.27;99998.88;5033540;28;20061;-79
2022/12/05 02:28:03;;;;;;;31.70;18.02;;;;;;;5.17;69.52;99997.13;5051749;28;20140;-80
2022/12/05 02:30:38;;;;;;;30.40;16.88;;;;;;;5.15;69.49;99997.16;5051569;28;20148;-79
2022/12/05 02:33:23;;;;;;;30.00;17.33;;;;;;;5.16;69.77;99998.03;5051718;28;20111;-79
2022/12/05 02:36:07;;;;;;;31.17;17.05;;;;;;;5.15;69.70;99993.69;5051565;28;20132;-79
2022/12/05 02:38:45;;;;;;;33.05;17.05;;;;;;;5.16;69.64;99992.81;5033639;28;20135;-79
2022/12/05 02:41:30;;;;;;;28.77;17.25;;;;;;;5.15;69.69;100005.00;5050074;28;20489;-79
2022/12/05 02:44:22;;;;;;;28.05;16.88;;;;;;;5.15;69.69;99998.91;5051263;28;20085;-79
2022/12/05 02:46:51;;;;;;;29.98;16.33;;;;;;;5.19;69.43;99997.91;5051407;28;20093;-79
2022/12/05 02:49:24;;;;;;;28.73;16.50;;;;;;;5.18;69.72;99996.22;5033513;28;20147;-79
2022/12/05 02:51:55;;;;;;;29.55;16.73;;;;;;;5.18;69.67;99998.81;5051350;28;20142;-79
2022/12/05 02:54:26;;;;;;;28.38;16.25;;;;;;;5.20;69.63;100002.25;5051218;28;20498;-79
2022/12/05 02:56:55;;;;;;;30.52;16.10;;;;;;;5.21;69.56;99996.97;5051078;28;20053;-79
2022/12/05 02:59:21;;;;;;;28.95;17.35;;;;;;;5.24;69.38;100003.88;5051046;28;20400;-79
2022/12/05 03:01:49;;;;;;;28.52;16.75;;;;;;;5.26;69.83;99995.97;5051229;28;20057;-79
2022/12/05 03:04:19;;;;;;;27.98;16.17;;;;;;;5.27;69.53;99995.09;5050405;28;20056;-79
2022/12/05 03:06:52;;;;;;;26.10;16.33;;;;;;;5.26;69.59;99989.00;5050332;28;20485;-79
2022/12/05 03:09:24;;;;;;;;;;;;;;;5.30;69.99;99990.63;5051590;28;20052;-79
2022/12/05 03:12:03;;;;;;;22.95;14.52;;;;;;;5.32;69.54;99982.75;5050950;28;19928;-79
2022/12/05 03:14:38;;;;;;;22.85;13.30;;;;;;;5.32;69.41;99977.53;5050969;28;20077;-79
2022/12/05 03:17:10;;;;;;;25.67;14.25;;;;;;;5.32;69.24;99977.53;5050390;28;20135;-79
2022/12/05 03:19:52;;;;;;;24.63;14.30;;;;;;;5.30;69.59;99985.41;5050818;28;20053;-79
2022/12/05 03:22:26;;;;;;;24.10;14.15;;;;;;;5.31;69.16;99978.44;5050497;28;20511;-79
2022/12/05 03:24:53;;;;;;;22.55;13.93;;;;;;;5.31;69.10;99976.66;5050612;28;20056;-79
2022/12/05 03:27:24;;;;;;;22.33;14.25;;;;;;;5.29;69.23;99981.09;5050437;28;20480;-80
2022/12/05 03:29:54;;;;;;;24.35;14.57;;;;;;;5.27;69.46;99988.09;5050392;28;20136;-79
2022/12/05 03:32:37;;;;;;;22.23;13.90;;;;;;;5.25;69.67;99984.69;5032947;28;20068;-79
2022/12/05 03:35:20;;;;;;;21.10;13.60;;;;;;;5.26;69.47;99981.19;5050518;28;20045;-79
2022/12/05 03:37:50;;;;;;;;;;;;;;;5.27;69.90;99990.72;5050661;28;20581;-79
2022/12/05 03:40:24;;;;;;;22.83;12.40;;;;;;;5.28;69.34;99981.13;5051092;28;20266;-79
2022/12/05 03:43:12;;;;;;;22.30;13.30;;;;;;;5.27;69.38;99990.72;5050372;28;20088;-79
2022/12/05 03:46:01;;;;;;;21.20;13.63;;;;;;;5.25;69.79;99992.53;5050111;28;20136;-79
2022/12/05 03:48:36;;;;;;;21.15;13.88;;;;;;;5.26;69.56;99995.97;5049811;28;20149;-79
2022/12/05 03:51:06;;;;;;;22.52;13.63;;;;;;;5.28;69.37;99989.81;5050367;28;20090;-79
2022/12/05 03:53:40;;;;;;;23.75;14.95;;;;;;;5.28;69.65;99987.22;5050324;28;20057;-79
2022/12/05 03:56:16;;;;;;;22.02;14.05;;;;;;;5.28;69.71;99991.56;5050117;28;20106;-78
2022/12/05 03:58:50;;;;;;;21.95;13.45;;;;;;;5.29;69.42;99988.06;5049728;28;20510;-79
2022/12/05 04:01:20;;;;;;;21.17;13.52;;;;;;;5.30;69.32;99989.75;5049709;28;20057;-78
2022/12/05 04:03:52;;;;;;;21.00;13.23;;;;;;;5.31;69.51;99991.47;5032521;28;20053;-79
2022/12/05 04:06:30;;;;;;;20.70;13.00;;;;;;;5.31;69.89;99989.72;5049792;28;20057;-79
2022/12/05 04:09:03;;;;;;;20.33;12.75;;;;;;;5.32;69.65;99991.44;5049610;28;20127;-79
2022/12/05 04:11:34;;;;;;;19.67;13.30;;;;;;;5.33;69.63;99995.75;5049640;28;20053;-79
2022/12/05 04:14:07;;;;;;;21.45;13.27;;;;;;;5.33;69.63;99992.28;5049556;28;20514;-79
2022/12/05 04:17:05;;;;;;;22.98;13.88;;;;;;;5.32;69.95;99988.84;5049488;28;20081;-80
2022/12/05 04:22:41;;;;;;;20.50;13.27;;;;;;;5.37;69.18;99988.66;5049725;28;20052;-79
2022/12/05 04:28:12;;;;;;;22.35;12.90;;;;;;;5.34;69.70;99987.00;5048960;28;20061;-79
2022/12/05 04:31:04;;;;;;;24.85;13.40;;;;;;;5.33;69.88;99993.13;5049793;28;20085;-78
2022/12/05 04:33:55;;;;;;;20.00;12.20;;;;;;;5.34;69.48;99992.22;5049460;28;20056;-79
2022/12/05 04:36:31;;;;;;;20.08;12.80;;;;;;;5.32;69.55;99988.84;5049157;28;20048;-79
2022/12/05 04:39:07;;;;;;;22.20;13.32;;;;;;;5.33;69.36;99989.66;5049613;28;20343;-79
2022/12/05 04:41:45;;;;;;;19.95;12.60;;;;;;;5.33;69.37;99990.53;5032882;28;20060;-79
2022/12/05 04:44:16;;;;;;;21.73;13.05;;;;;;;5.33;69.42;99989.66;5049201;28;20507;-79
2022/12/05 04:46:44;;;;;;;21.60;13.05;;;;;;;5.33;69.23;99990.53;5049005;28;20192;-78
2022/12/05 04:49:16;;;;;;;21.42;13.93;;;;;;;5.31;69.71;99994.94;5049032;28;20572;-79
2022/12/05 04:51:44;;;;;;;20.50;13.07;;;;;;;5.33;69.60;99993.13;5049561;28;20053;-79
2022/12/05 04:54:22;;;;;;;22.80;13.55;;;;;;;5.31;69.86;99997.53;5049345;28;20056;-79
2022/12/05 04:56:52;;;;;;;19.98;12.52;;;;;;;5.33;69.55;99990.53;5049096;28;20052;-79
2022/12/05 04:59:26;;;;;;;20.25;12.93;;;;;;;5.34;69.40;99994.84;5048796;28;20064;-79
2022/12/05 05:01:56;;;;;;;20.40;12.93;;;;;;;5.33;69.49;99992.28;5048927;28;20478;-79
2022/12/05 05:04:33;;;;;;;22.65;14.40;;;;;;;5.32;69.62;99994.06;5049130;28;20139;-79
2022/12/05 05:07:05;;;;;;;23.42;14.32;;;;;;;5.32;69.53;99988.84;5048927;28;20136;-79
2022/12/05 05:09:32;;;;;;;21.30;13.27;;;;;;;5.33;69.18;99993.13;5031298;28;20116;-79
2022/12/05 05:11:58;;;;;;;21.02;13.77;;;;;;;5.33;69.15;99994.88;5049094;28;20110;-78
2022/12/05 05:14:25;;;;;;;20.00;13.20;;;;;;;5.33;69.27;99993.13;5049143;28;20064;-78
2022/12/05 05:16:51;;;;;;;21.05;13.40;;;;;;;5.32;69.36;99999.28;5048732;28;20510;-79
2022/12/05 05:19:17;;;;;;;21.45;13.27;;;;;;;5.33;69.37;99992.28;5048544;28;20088;-79
2022/12/05 05:21:44;;;;;;;21.10;13.48;;;;;;;5.32;69.31;99990.56;5049461;28;20132;-79
2022/12/05 05:24:11;;;;;;;19.90;12.70;;;;;;;5.33;69.58;99993.13;5047948;28;20053;-79
2022/12/05 05:26:39;;;;;;;19.80;13.00;;;;;;;5.33;69.28;100000.97;5031051;28;20471;-79
2022/12/05 05:29:06;;;;;;;22.13;13.38;;;;;;;5.33;69.45;99989.66;5051654;28;20111;-79
2022/12/05 05:31:34;;;;;;;19.60;13.13;;;;;;;5.33;69.35;99993.13;5052812;28;20061;-79
2022/12/05 05:34:00;;;;;;;21.33;13.43;;;;;;;5.34;69.23;99999.19;5052837;28;20061;-79
2022/12/05 05:36:34;;;;;;;22.75;14.18;;;;;;;5.34;69.50;99993.97;5052180;28;20542;-80
2022/12/05 05:39:03;;;;;;;20.48;13.18;;;;;;;5.33;69.52;99998.38;5052553;28;20056;-79
2022/12/05 05:41:32;;;;;;;21.65;14.52;;;;;;;5.32;69.57;99996.66;5052516;28;20511;-79
2022/12/05 05:43:59;;;;;;;20.23;13.55;;;;;;;5.34;69.59;100001.81;5052478;28;20049;-79
2022/12/05 05:46:29;;;;;;;19.70;13.32;;;;;;;5.34;69.42;99996.59;5052045;28;20115;-79
2022/12/05 05:48:56;;;;;;;20.45;13.93;;;;;;;5.34;69.32;100001.81;5052360;28;20057;-80
2022/12/05 05:51:28;;;;;;;23.23;14.85;;;;;;;5.34;69.33;99999.19;5052130;28;20132;-79
2022/12/05 05:53:55;;;;;;;22.33;14.75;;;;;;;5.34;69.34;100000.06;5052679;28;20068;-79
2022/12/05 05:56:22;;;;;;;23.75;14.20;;;;;;;5.34;69.29;99997.44;5052245;28;20088;-79
2022/12/05 05:58:54;;;;;;;21.13;13.50;;;;;;;5.32;69.65;100001.00;5052274;28;20048;-79
2022/12/05 06:01:21;;;;;;;20.73;14.23;;;;;;;5.35;69.28;100006.16;5138814;22;20071;-79
2022/12/05 06:03:49;;;;;;;21.45;14.27;;;;;;;5.34;69.44;100007.91;5053410;28;20068;-79
2022/12/05 06:06:18;;;;;;;21.63;14.18;;;;;;;5.34;69.43;100007.91;5035342;28;20115;-77
2022/12/05 06:08:45;;;;;;;21.35;13.65;;;;;;;5.35;69.51;100000.94;5035348;28;20065;-77
2022/12/05 06:11:15;;;;;;;20.98;13.82;;;;;;;5.35;69.40;100003.53;5036363;28;20056;-78
2022/12/05 06:13:51;;;;;;;22.10;14.02;;;;;;;5.37;69.33;100011.28;5052670;28;20045;-79
2022/12/05 06:16:19;;;;;;;23.67;14.20;;;;;;;5.37;69.51;100000.84;5049091;28;20128;-79
2022/12/05 06:18:48;;;;;;;20.90;13.85;;;;;;;5.37;69.53;100009.56;5052878;28;20068;-79
2022/12/05 06:21:15;;;;;;;22.77;13.70;;;;;;;5.38;69.26;100007.81;5052733;28;20083;-79
2022/12/05 06:23:42;;;;;;;23.98;14.20;;;;;;;5.37;69.46;100006.94;5053255;28;20053;-78
2022/12/05 06:26:12;;;;;;;24.27;13.88;;;;;;;5.37;69.66;99998.25;5052408;28;20067;-78
2022/12/05 06:28:38;;;;;;;22.70;13.00;;;;;;;5.37;69.51;100001.72;5052932;28;20064;-79
2022/12/05 06:31:09;;;;;;;21.15;13.35;;;;;;;5.38;69.33;100010.41;5052847;28;20124;-79
2022/12/05 06:33:36;;;;;;;25.08;13.95;;;;;;;5.38;69.42;100007.81;5052757;28;20060;-78
2022/12/05 06:36:09;;;;;;;21.83;13.98;;;;;;;5.36;69.66;100005.25;5052869;28;20470;-79
2022/12/05 06:38:35;;;;;;;23.90;14.23;;;;;;;5.39;69.63;100009.50;5030680;28;20057;-80
2022/12/05 06:41:10;;;;;;;21.07;13.90;;;;;;;5.38;69.59;100005.19;5051429;28;20053;-79
2022/12/05 06:43:37;;;;;;;21.27;13.30;;;;;;;5.40;69.28;100003.38;5032570;28;20128;-78
2022/12/05 06:46:08;;;;;;;21.80;13.05;;;;;;;5.38;69.69;100007.81;5051069;28;20098;-79
2022/12/05 06:48:35;;;;;;;21.98;13.75;;;;;;;5.40;69.73;100008.59;5032346;28;20493;-80
2022/12/05 06:51:02;;;;;;;21.92;13.45;;;;;;;5.40;69.67;100006.84;5051703;28;20460;-79
2022/12/05 06:53:29;;;;;;;20.33;13.45;;;;;;;5.41;69.47;100007.69;5034325;28;20068;-80
2022/12/05 06:55:57;;;;;;;22.85;13.05;;;;;;;5.43;69.25;100013.72;5033366;28;20136;-79
2022/12/05 06:58:24;;;;;;;18.50;12.20;;;;;;;5.42;69.61;100004.19;5051476;28;20076;-78
2022/12/05 07:03:37;;;;;;;18.80;11.98;;;;;;;5.43;69.49;100006.78;5051835;28;20103;-80
2022/12/05 07:06:05;;;;;;;21.00;12.82;;;;;;;5.43;69.56;100009.38;5034215;28;20152;-79
2022/12/05 07:08:33;;;;;;;20.92;12.43;;;;;;;5.43;69.44;100017.22;5034099;28;20061;-79
2022/12/05 07:11:01;;;;;;;21.55;12.50;;;;;;;5.43;69.68;100012.00;5051779;28;20259;-81
2022/12/05 07:13:30;;;;;;;20.70;11.75;;;;;;;5.44;69.72;100018.91;5050594;28;20468;-81
2022/12/05 07:22:54;;;;;;;21.58;11.80;;;;;;;5.47;69.78;100028.41;5123655;23;20079;-85
2022/12/05 07:25:21;;;;;;;20.83;12.00;;;;;;;5.51;69.36;100024.78;5032547;28;20053;-85
2022/12/05 07:27:56;;;;;;;20.27;12.35;;;;;;;5.48;69.90;100033.56;5034062;28;20050;-85
2022/12/05 07:30:22;;;;;;;17.48;11.63;;;;;;;5.52;69.35;100036.06;5034013;28;20744;-85
2022/12/05 07:33:02;;;;;;;20.70;12.32;;;;;;;5.50;69.83;100040.50;5034090;28;20472;-85
2022/12/05 07:35:29;;;;;;;20.27;13.02;;;;;;;5.54;69.66;100029.06;5016342;28;20077;-85
2022/12/05 07:37:57;;;;;;;20.05;11.23;;;;;;;5.54;69.70;100035.16;5016189;28;20088;-85
2022/12/05 07:40:24;;;;;;;18.77;11.98;;;;;;;5.56;69.61;100035.06;5016660;28;20107;-85
2022/12/05 07:42:57;;;;;;;19.40;12.98;;;;;;;5.53;69.86;100036.03;5016894;28;20752;-86
2022/12/05 07:45:23;;;;;;;20.08;12.00;;;;;;;5.57;69.41;100035.03;5033968;28;20091;-86
2022/12/05 07:47:50;;;;;;;19.00;12.20;;;;;;;5.58;69.55;100031.50;5015964;28;20099;-86
2022/12/05 07:50:16;;;;;;;24.05;12.50;;;;;;;5.58;69.53;100031.50;5033582;28;20488;-86
2022/12/05 07:52:43;;;;;;;22.88;12.45;;;;;;;5.59;69.54;100034.97;5033311;28;20054;-85
2022/12/05 07:55:19;;;;;;;20.33;12.57;;;;;;;5.57;70.09;100040.25;5015855;28;20497;-86
2022/12/05 07:57:46;;;;;;;16.70;11.55;;;;;;;5.61;69.55;100033.19;5015995;28;20080;-86
2022/12/05 08:00:26;;;;;;;19.48;12.05;;;;;;;5.58;69.96;100030.66;5015721;28;20085;-86
2022/12/05 08:02:53;;;;;;;19.42;11.90;;;;;;;5.63;69.61;100027.91;5034374;28;20061;-86
2022/12/05 08:05:19;;;;;;;20.35;11.93;;;;;;;5.62;69.41;100032.28;5033137;28;20088;-85
2022/12/05 08:07:46;;;;;;;23.98;12.20;;;;;;;5.64;69.60;100032.25;5033394;28;20444;-86
2022/12/05 08:10:20;;;;;;;34.22;12.88;;;;;;;5.61;70.03;100036.63;5033261;28;20053;-86
2022/12/05 08:12:48;;;;;;;25.92;12.77;;;;;;;5.66;69.65;100030.41;5015941;28;20486;-86
2022/12/05 08:15:22;;;;;;;19.10;11.63;;;;;;;5.64;69.87;100029.63;5015871;28;20477;-86
2022/12/05 08:17:49;;;;;;;21.90;12.35;;;;;;;5.67;69.68;100026.91;5033140;28;20540;-86
2022/12/05 08:20:17;;;;;;;28.17;12.75;;;;;;;5.67;69.62;100035.59;5033144;28;20115;-86
2022/12/05 08:22:43;;;;;;;26.75;12.70;;;;;;;5.70;69.70;100037.25;5015694;28;20548;-86
2022/12/05 08:25:18;;;;;;;30.20;13.18;;;;;;;5.69;70.13;100038.16;5033132;28;20112;-85
2022/12/05 08:27:45;;;;;;;34.28;13.40;;;;;;;5.72;69.59;100036.28;5033127;28;20112;-85
2022/12/05 08:30:32;;;;;;;29.95;13.60;;;;;;;5.71;70.40;100038.94;5032914;28;20092;-86
2022/12/05 08:32:58;;;;;;;22.80;12.63;;;;;;;5.75;69.98;100032.72;5015353;28;20053;-86
2022/12/05 08:35:25;;;;;;;44.38;13.45;;;;;;;5.76;69.67;100042.28;5015246;28;20065;-86
2022/12/05 08:37:51;;;;;;;30.45;12.55;;;;;;;5.76;69.70;100050.13;5032599;28;20061;-85
2022/12/05 08:40:25;;;;;;;63.08;13.20;;;;;;;5.74;70.00;100047.56;5015366;28;20127;-86
2022/12/05 08:42:52;;;;;;;54.88;12.85;;;;;;;5.77;69.71;100051.84;5033035;28;20087;-86
2022/12/05 08:45:19;;;;;;;35.88;12.55;;;;;;;5.76;69.89;100055.34;5032961;28;20498;-86
2022/12/05 08:47:45;;;;;;;26.23;10.68;;;;;;;5.76;69.97;100057.09;5015229;28;20061;-86
2022/12/05 08:50:25;;;;;;;43.80;12.98;;;;;;;5.71;70.04;100059.84;5032731;28;20524;-85
2022/12/05 08:52:51;;;;;;;32.45;12.10;;;;;;;5.77;69.79;100057.06;5032767;28;20085;-86
2022/12/05 08:55:23;;;;;;;40.13;11.30;;;;;;;5.76;69.79;100060.59;5032130;28;20111;-85
2022/12/05 08:57:49;;;;;;;70.88;13.25;;;;;;;5.77;69.85;100064.03;5015276;28;20062;-86
2022/12/05 09:00:17;;;;;;;40.67;11.52;;;;;;;5.79;69.96;100063.06;5014925;28;20057;-86
2022/12/05 09:02:43;;;;;;;44.75;12.82;;;;;;;5.80;70.03;100067.38;5032981;28;20493;-86
2022/12/05 09:05:12;;;;;;;74.57;12.70;;;;;;;5.81;70.06;100066.50;5018956;28;20054;-85
2022/12/05 09:07:54;;;;;;;46.58;13.45;;;;;;;5.83;69.73;100066.47;5021430;28;20049;-85
2022/12/05 09:10:30;;;;;;;52.35;13.60;;;;;;;5.80;69.80;100067.38;5036607;28;20063;-86
2022/12/05 09:12:57;;;;;;;38.00;13.13;;;;;;;5.84;69.64;100070.78;5036455;28;20125;-86
2022/12/05 09:15:41;;;;;;;38.03;11.63;;;;;;;5.81;70.17;100069.13;5036594;28;20085;-86
2022/12/05 09:18:08;;;;;;;33.05;11.80;;;;;;;5.85;69.83;100065.50;5018918;28;20502;-85
2022/12/05 09:20:38;;;;;;;49.22;14.43;;;;;;;5.85;69.95;100065.50;5036766;28;20053;-86
2022/12/05 09:23:05;;;;;;;28.27;12.23;;;;;;;5.87;69.70;100070.69;5018575;28;20057;-86
2022/12/05 09:25:39;;;;;;;26.35;12.23;;;;;;;5.85;70.43;100070.72;5036283;28;20453;-85
2022/12/05 09:28:06;;;;;;;27.02;12.05;;;;;;;5.90;69.96;100077.56;5018577;28;20104;-86
2022/12/05 09:31:02;;;;;;;23.88;11.98;;;;;;;5.89;70.27;100068.00;5018636;28;20080;-86
2022/12/05 09:33:31;;;;;;;27.08;12.30;;;;;;;5.94;69.75;100079.19;5035181;28;20056;-85
2022/12/05 09:36:08;;;;;;;22.63;12.52;;;;;;;5.93;70.01;100080.06;5035862;28;20173;-86
2022/12/05 09:38:36;;;;;;;25.63;12.05;;;;;;;5.96;69.86;100087.81;5018527;28;20058;-86
2022/12/05 09:42:03;;;;;;;24.23;12.30;;;;;;;5.93;70.19;100082.66;5036068;28;20115;-86
2022/12/05 09:44:17;;;;;;;22.00;11.32;;;;;;;5.94;70.15;100085.25;5035825;28;20053;-86
2022/12/05 09:46:59;;;;;;;19.05;10.57;;;;;;;5.94;70.04;100084.41;5035348;28;20103;-86
2022/12/05 09:49:28;;;;;;;15.80;10.02;;;;;;;5.98;69.63;100086.00;5036074;28;20108;-86
2022/12/05 09:51:57;;;;;;;12.60;8.43;;;;;;;5.97;69.60;100087.75;5018149;28;20064;-86
2022/12/05 09:54:27;;;;;;;10.40;7.50;;;;;;;5.95;69.77;100086.09;5018234;28;20088;-86
2022/12/05 09:56:54;;;;;;;14.00;8.20;;;;;;;5.95;69.42;100079.09;5017971;28;20128;-86
2022/12/05 09:59:20;;;;;;;12.05;7.70;;;;;;;5.94;69.32;100089.63;5018315;28;20065;-83
2022/12/05 10:07:26;;;;;;;10.63;6.68;;;;;;;5.92;69.12;100080.97;5234388;22;20417;-80
2022/12/05 10:10:04;;;;;;;10.48;6.53;;;;;;;5.90;69.24;100082.78;5033777;28;20081;-81
2022/12/05 10:12:34;;;;;;;8.85;6.25;;;;;;;5.87;69.31;100086.34;5033202;28;20061;-81
2022/12/05 10:15:09;;;;;;;9.18;5.97;;;;;;;5.86;69.07;100077.66;5033194;28;20082;-81
2022/12/05 10:17:43;;;;;;;10.80;6.25;;;;;;;5.83;69.25;100085.59;5015563;28;20061;-79
2022/12/05 10:20:21;;;;;;;10.32;6.50;;;;;;;5.80;69.09;100080.44;5033224;28;20057;-80
2022/12/05 10:22:57;;;;;;;9.68;6.63;;;;;;;5.79;69.19;100076.13;5015513;28;20053;-79
2022/12/05 10:25:26;;;;;;;11.00;6.75;;;;;;;5.80;69.54;100077.84;5032659;28;20057;-80
2022/12/05 10:27:57;;;;;;;10.15;6.63;;;;;;;5.79;69.17;100073.53;5032639;28;20123;-80
2022/12/05 10:30:28;;;;;;;8.50;6.20;;;;;;;5.81;69.38;100082.19;5032908;28;20049;-81
2022/12/05 10:33:04;;;;;;;9.00;6.10;;;;;;;5.82;69.06;100070.81;5032581;28;20493;-81
2022/12/05 10:35:37;;;;;;;8.65;5.70;;;;;;;5.84;69.29;100073.38;5032855;28;20398;-80
2022/12/05 10:38:08;;;;;;;8.50;5.60;;;;;;;5.85;69.14;100075.94;5032574;28;20540;-80
2022/12/05 10:40:39;;;;;;;8.85;6.18;;;;;;;5.86;69.00;100077.66;5032782;28;20057;-80
2022/12/05 10:43:07;;;;;;;8.23;5.97;;;;;;;5.89;69.17;100081.06;5032709;28;20078;-80
2022/12/05 10:45:46;;;;;;;9.48;6.85;;;;;;;5.90;68.67;100082.78;5032837;28;20568;-81
2022/12/05 10:48:16;;;;;;;9.90;6.13;;;;;;;5.93;68.76;100074.81;5032379;28;20061;-80
2022/12/05 10:50:47;;;;;;;10.77;6.57;;;;;;;5.92;68.42;100076.59;5032548;28;20139;-81
2022/12/05 10:53:39;;;;;;;8.57;6.35;;;;;;;5.89;68.31;100068.88;5032255;28;20057;-80
2022/12/05 10:56:40;;;;;;;9.77;6.75;;;;;;;5.91;68.66;100077.50;5014662;28;20086;-80
2022/12/05 10:59:09;;;;;;;10.45;6.20;;;;;;;5.95;68.56;100062.59;5025475;28;20461;-80
2022/12/05 11:01:42;;;;;;;9.38;6.45;;;;;;;5.95;68.44;100071.25;5032599;28;20056;-80
2022/12/05 11:04:20;;;;;;;9.45;6.47;;;;;;;5.93;68.15;100061.75;5031748;28;20061;-80
2022/12/05 11:06:50;;;;;;;8.85;5.90;;;;;;;5.95;68.42;100066.03;5031589;28;20534;-81
2022/12/05 11:09:20;;;;;;;7.97;5.78;;;;;;;5.97;68.17;100068.59;5031910;28;20081;-80
2022/12/05 11:12:20;;;;;;;8.52;5.88;;;;;;;5.94;68.11;100064.34;5032138;28;20111;-80
2022/12/05 11:15:03;;;;;;;8.57;5.80;;;;;;;5.96;67.96;100056.44;5013596;28;20112;-79
2022/12/05 11:17:35;;;;;;;8.30;6.15;;;;;;;6.00;68.33;100050.22;5014428;28;20055;-81
2022/12/05 11:20:21;;;;;;;7.95;5.28;;;;;;;5.97;68.19;100058.16;5031948;28;20049;-80
2022/12/05 11:22:50;;;;;;;8.43;6.10;;;;;;;6.03;68.33;100057.09;5031779;28;20054;-80
2022/12/05 11:25:30;;;;;;;7.47;6.07;;;;;;;5.99;68.09;100051.97;5031245;28;20092;-81
2022/12/05 11:27:59;;;;;;;8.30;5.95;;;;;;;6.05;68.18;100050.94;5031379;28;20063;-81
2022/12/05 11:30:28;;;;;;;8.38;6.28;;;;;;;6.07;68.07;100054.38;5031647;28;20510;-79
2022/12/05 11:33:31;;;;;;;8.15;6.00;;;;;;;6.06;68.10;100052.66;5031682;28;20058;-81
2022/12/05 11:36:18;;;;;;;7.68;5.70;;;;;;;6.10;67.78;100053.41;4931868;29;20103;-81
2022/12/05 11:38:45;;;;;;;8.38;5.70;;;;;;;6.13;68.16;100053.28;5008558;28;20056;-80
2022/12/05 11:41:33;;;;;;;7.53;5.75;;;;;;;6.10;67.78;100051.63;5031503;28;20061;-80
2022/12/05 11:44:26;;;;;;;8.57;6.18;;;;;;;6.11;67.74;100045.53;5023923;28;20111;-80
2022/12/05 11:47:21;;;;;;;8.00;5.22;;;;;;;6.13;67.86;100048.94;5031514;28;20056;-80
2022/12/05 11:50:18;;;;;;;8.30;5.72;;;;;;;6.13;67.51;100038.47;5031319;28;20227;-80
2022/12/05 11:53:01;;;;;;;7.43;5.70;;;;;;;6.16;67.41;100041.91;5031852;28;20054;-80
2022/12/05 11:55:40;;;;;;;10.65;6.15;;;;;;;6.15;67.24;100045.41;5031256;28;20045;-80
2022/12/05 11:58:45;;;;;;;8.32;5.53;;;;;;;6.13;67.06;100038.47;5031348;28;20053;-80
2022/12/05 12:04:21;;;;;;;6.85;5.25;;;;;;;6.18;67.49;100037.47;5021987;22;20572;-79
2022/12/05 12:07:03;;;;;;;7.50;5.60;;;;;;;6.16;67.20;100036.69;5048459;28;20079;-79
2022/12/05 12:10:05;;;;;;;7.75;6.15;;;;;;;6.17;67.43;100033.16;5048702;28;20140;-79
2022/12/05 12:13:03;;;;;;;7.18;5.68;;;;;;;6.11;67.07;100029.84;4968584;28;20422;-79